Westwego, Louisiana
Current Conditions -  °F | °C
As of 12:35 PM on Monday 26 Jan 2015 (Local Time) from KVSH Reporting Station
Clear Clear  
Wind Chill: 13°   Ceiling: Unl
Heat Index: 13°   Visibility: 10mi
Dew Point:   Wind: 7mph
Humidity: 44%   Direction: 320°NW
Pressure: 30.09"   Gusts: 16mph
Location:  29.91°N, 90.14°W
Report Text: KVSH 261835Z AUTO 32006G14KT 10SM CLR 13/01 A3009 RMK AO1
Loading
Personal Weather Stations






























Interactive Weather Map New forecast layout! Learn more

10-Day Weather Forecast

Advertisements
Track Severe Weather on mobile